sensor_id;sensor_type;location;lat;lon;timestamp;P1;durP1;ratioP1;P2;durP2;ratioP2
12871;SDS011;6504;53.766;9.626;2024-02-26T00:02:19;8.67;;;7.87;;
12871;SDS011;6504;53.766;9.626;2024-02-26T00:04:47;9.27;;;8.47;;
12871;SDS011;6504;53.766;9.626;2024-02-26T00:07:15;8.27;;;7.57;;
12871;SDS011;6504;53.766;9.626;2024-02-26T00:09:43;8.97;;;8.10;;
12871;SDS011;6504;53.766;9.626;2024-02-26T00:12:11;9.37;;;8.40;;
12871;SDS011;6504;53.766;9.626;2024-02-26T00:14:39;8.90;;;8.10;;
12871;SDS011;6504;53.766;9.626;2024-02-26T00:17:07;8.83;;;8.13;;
12871;SDS011;6504;53.766;9.626;2024-02-26T00:19:37;9.17;;;8.27;;
12871;SDS011;6504;53.766;9.626;2024-02-26T00:22:05;9.37;;;8.47;;
12871;SDS011;6504;53.766;9.626;2024-02-26T00:24:33;9.23;;;8.37;;
12871;SDS011;6504;53.766;9.626;2024-02-26T00:27:01;9.43;;;8.53;;
12871;SDS011;6504;53.766;9.626;2024-02-26T00:29:29;9.43;;;8.53;;
12871;SDS011;6504;53.766;9.626;2024-02-26T00:31:58;9.80;;;8.87;;
12871;SDS011;6504;53.766;9.626;2024-02-26T00:34:26;9.07;;;8.20;;
12871;SDS011;6504;53.766;9.626;2024-02-26T00:36:56;8.83;;;8.03;;
12871;SDS011;6504;53.766;9.626;2024-02-26T00:39:24;9.03;;;8.13;;
12871;SDS011;6504;53.766;9.626;2024-02-26T00:41:53;9.60;;;8.70;;
12871;SDS011;6504;53.766;9.626;2024-02-26T00:44:21;9.43;;;8.50;;
12871;SDS011;6504;53.766;9.626;2024-02-26T00:46:49;10.10;;;9.20;;
12871;SDS011;6504;53.766;9.626;2024-02-26T00:49:17;10.00;;;9.10;;
12871;SDS011;6504;53.766;9.626;2024-02-26T00:51:45;10.77;;;9.80;;
12871;SDS011;6504;53.766;9.626;2024-02-26T00:54:14;9.87;;;8.97;;
12871;SDS011;6504;53.766;9.626;2024-02-26T00:56:42;9.87;;;8.87;;
12871;SDS011;6504;53.766;9.626;2024-02-26T00:59:10;9.20;;;8.40;;
12871;SDS011;6504;53.766;9.626;2024-02-26T01:01:38;9.03;;;8.30;;
12871;SDS011;6504;53.766;9.626;2024-02-26T01:04:06;10.63;;;9.63;;
12871;SDS011;6504;53.766;9.626;2024-02-26T01:06:35;9.97;;;9.13;;
12871;SDS011;6504;53.766;9.626;2024-02-26T01:09:03;9.73;;;8.83;;
12871;SDS011;6504;53.766;9.626;2024-02-26T01:11:32;9.00;;;8.20;;
12871;SDS011;6504;53.766;9.626;2024-02-26T01:14:00;8.93;;;8.13;;
12871;SDS011;6504;53.766;9.626;2024-02-26T01:16:30;9.37;;;8.57;;
12871;SDS011;6504;53.766;9.626;2024-02-26T01:18:58;10.87;;;9.87;;
12871;SDS011;6504;53.766;9.626;2024-02-26T01:21:26;10.30;;;9.50;;
12871;SDS011;6504;53.766;9.626;2024-02-26T01:23:55;9.60;;;8.80;;
12871;SDS011;6504;53.766;9.626;2024-02-26T01:26:23;10.23;;;9.33;;
12871;SDS011;6504;53.766;9.626;2024-02-26T01:28:53;10.50;;;9.50;;
12871;SDS011;6504;53.766;9.626;2024-02-26T01:31:22;10.20;;;9.30;;
12871;SDS011;6504;53.766;9.626;2024-02-26T01:33:50;9.93;;;9.03;;
12871;SDS011;6504;53.766;9.626;2024-02-26T01:36:19;9.97;;;9.07;;
12871;SDS011;6504;53.766;9.626;2024-02-26T01:38:47;10.20;;;9.20;;
12871;SDS011;6504;53.766;9.626;2024-02-26T01:41:15;8.97;;;8.17;;
12871;SDS011;6504;53.766;9.626;2024-02-26T01:43:43;9.73;;;8.80;;
12871;SDS011;6504;53.766;9.626;2024-02-26T01:46:14;9.30;;;8.50;;
12871;SDS011;6504;53.766;9.626;2024-02-26T01:48:43;9.47;;;8.57;;
12871;SDS011;6504;53.766;9.626;2024-02-26T01:51:13;8.83;;;8.00;;
12871;SDS011;6504;53.766;9.626;2024-02-26T01:53:44;8.73;;;7.97;;
12871;SDS011;6504;53.766;9.626;2024-02-26T01:56:12;9.63;;;8.73;;
12871;SDS011;6504;53.766;9.626;2024-02-26T01:58:41;9.90;;;9.00;;
12871;SDS011;6504;53.766;9.626;2024-02-26T02:01:10;10.40;;;9.40;;
12871;SDS011;6504;53.766;9.626;2024-02-26T02:03:42;9.97;;;9.07;;
12871;SDS011;6504;53.766;9.626;2024-02-26T02:06:11;10.97;;;9.87;;
12871;SDS011;6504;53.766;9.626;2024-02-26T02:08:40;10.93;;;9.80;;
12871;SDS011;6504;53.766;9.626;2024-02-26T02:11:09;9.63;;;8.77;;
12871;SDS011;6504;53.766;9.626;2024-02-26T02:13:38;9.40;;;8.50;;
12871;SDS011;6504;53.766;9.626;2024-02-26T02:16:06;10.10;;;9.03;;
12871;SDS011;6504;53.766;9.626;2024-02-26T02:18:36;10.53;;;9.43;;
12871;SDS011;6504;53.766;9.626;2024-02-26T02:21:06;10.43;;;9.53;;
12871;SDS011;6504;53.766;9.626;2024-02-26T02:23:34;10.87;;;9.87;;
12871;SDS011;6504;53.766;9.626;2024-02-26T02:26:02;11.17;;;10.17;;
12871;SDS011;6504;53.766;9.626;2024-02-26T02:28:30;10.37;;;9.43;;
12871;SDS011;6504;53.766;9.626;2024-02-26T02:30:59;9.70;;;8.90;;
12871;SDS011;6504;53.766;9.626;2024-02-26T02:33:27;10.10;;;9.10;;
12871;SDS011;6504;53.766;9.626;2024-02-26T02:35:55;10.63;;;9.67;;
12871;SDS011;6504;53.766;9.626;2024-02-26T02:38:25;9.67;;;8.77;;
12871;SDS011;6504;53.766;9.626;2024-02-26T02:40:56;10.47;;;9.47;;
12871;SDS011;6504;53.766;9.626;2024-02-26T02:43:24;10.70;;;9.70;;
12871;SDS011;6504;53.766;9.626;2024-02-26T02:45:52;10.10;;;9.10;;
12871;SDS011;6504;53.766;9.626;2024-02-26T02:48:20;9.67;;;8.77;;
12871;SDS011;6504;53.766;9.626;2024-02-26T02:50:48;9.80;;;8.90;;
12871;SDS011;6504;53.766;9.626;2024-02-26T02:53:16;10.37;;;9.23;;
12871;SDS011;6504;53.766;9.626;2024-02-26T02:55:46;9.63;;;8.70;;
12871;SDS011;6504;53.766;9.626;2024-02-26T02:58:14;10.13;;;9.10;;
12871;SDS011;6504;53.766;9.626;2024-02-26T03:00:42;10.77;;;9.60;;
12871;SDS011;6504;53.766;9.626;2024-02-26T03:03:10;11.10;;;10.00;;
12871;SDS011;6504;53.766;9.626;2024-02-26T03:05:39;11.33;;;10.13;;
12871;SDS011;6504;53.766;9.626;2024-02-26T03:08:07;11.43;;;10.23;;
12871;SDS011;6504;53.766;9.626;2024-02-26T03:10:35;11.27;;;10.17;;
12871;SDS011;6504;53.766;9.626;2024-02-26T03:13:05;11.03;;;9.93;;
12871;SDS011;6504;53.766;9.626;2024-02-26T03:15:33;11.97;;;10.67;;
12871;SDS011;6504;53.766;9.626;2024-02-26T03:18:01;10.73;;;9.13;;
12871;SDS011;6504;53.766;9.626;2024-02-26T03:20:30;10.77;;;9.73;;
12871;SDS011;6504;53.766;9.626;2024-02-26T03:22:58;11.20;;;10.10;;
12871;SDS011;6504;53.766;9.626;2024-02-26T03:25:26;11.63;;;10.43;;
12871;SDS011;6504;53.766;9.626;2024-02-26T03:27:54;12.33;;;11.07;;
12871;SDS011;6504;53.766;9.626;2024-02-26T03:30:23;12.30;;;10.60;;
12871;SDS011;6504;53.766;9.626;2024-02-26T03:32:51;12.50;;;11.20;;
12871;SDS011;6504;53.766;9.626;2024-02-26T03:35:20;13.03;;;11.73;;
12871;SDS011;6504;53.766;9.626;2024-02-26T03:37:48;12.07;;;10.87;;
12871;SDS011;6504;53.766;9.626;2024-02-26T03:40:18;11.70;;;10.50;;
12871;SDS011;6504;53.766;9.626;2024-02-26T03:42:46;11.60;;;10.50;;
12871;SDS011;6504;53.766;9.626;2024-02-26T03:45:14;10.97;;;9.97;;
12871;SDS011;6504;53.766;9.626;2024-02-26T03:47:43;10.30;;;9.33;;
12871;SDS011;6504;53.766;9.626;2024-02-26T03:50:12;11.50;;;10.40;;
12871;SDS011;6504;53.766;9.626;2024-02-26T03:52:40;10.97;;;9.97;;
12871;SDS011;6504;53.766;9.626;2024-02-26T03:55:09;11.30;;;10.13;;
12871;SDS011;6504;53.766;9.626;2024-02-26T03:57:37;10.57;;;9.57;;
12871;SDS011;6504;53.766;9.626;2024-02-26T04:00:05;11.77;;;10.67;;
12871;SDS011;6504;53.766;9.626;2024-02-26T04:02:36;11.37;;;10.27;;
12871;SDS011;6504;53.766;9.626;2024-02-26T04:05:08;11.30;;;10.17;;
12871;SDS011;6504;53.766;9.626;2024-02-26T04:07:37;11.20;;;10.10;;
12871;SDS011;6504;53.766;9.626;2024-02-26T04:10:08;11.70;;;10.57;;
12871;SDS011;6504;53.766;9.626;2024-02-26T04:12:38;10.73;;;9.63;;
12871;SDS011;6504;53.766;9.626;2024-02-26T04:15:07;11.33;;;10.20;;
12871;SDS011;6504;53.766;9.626;2024-02-26T04:17:37;10.80;;;9.70;;
12871;SDS011;6504;53.766;9.626;2024-02-26T04:20:12;10.43;;;9.43;;
12871;SDS011;6504;53.766;9.626;2024-02-26T04:22:41;10.47;;;9.47;;
12871;SDS011;6504;53.766;9.626;2024-02-26T04:25:09;10.63;;;9.60;;
12871;SDS011;6504;53.766;9.626;2024-02-26T04:27:37;10.80;;;9.80;;
12871;SDS011;6504;53.766;9.626;2024-02-26T04:30:06;10.60;;;9.70;;
12871;SDS011;6504;53.766;9.626;2024-02-26T04:32:35;9.87;;;8.97;;
12871;SDS011;6504;53.766;9.626;2024-02-26T04:35:03;11.10;;;10.00;;
12871;SDS011;6504;53.766;9.626;2024-02-26T04:37:33;10.20;;;9.23;;
12871;SDS011;6504;53.766;9.626;2024-02-26T04:40:01;10.43;;;9.43;;
12871;SDS011;6504;53.766;9.626;2024-02-26T04:42:30;10.67;;;9.57;;
12871;SDS011;6504;53.766;9.626;2024-02-26T04:44:58;10.60;;;9.57;;
12871;SDS011;6504;53.766;9.626;2024-02-26T04:47:26;10.27;;;9.27;;
12871;SDS011;6504;53.766;9.626;2024-02-26T04:49:55;10.93;;;9.87;;
12871;SDS011;6504;53.766;9.626;2024-02-26T04:52:23;11.13;;;10.03;;
12871;SDS011;6504;53.766;9.626;2024-02-26T04:54:53;10.80;;;9.70;;
12871;SDS011;6504;53.766;9.626;2024-02-26T04:57:21;10.97;;;9.87;;
12871;SDS011;6504;53.766;9.626;2024-02-26T04:59:50;11.50;;;10.40;;
12871;SDS011;6504;53.766;9.626;2024-02-26T05:02:18;10.83;;;9.80;;
12871;SDS011;6504;53.766;9.626;2024-02-26T05:04:46;10.83;;;9.83;;
12871;SDS011;6504;53.766;9.626;2024-02-26T05:07:14;11.67;;;10.47;;
12871;SDS011;6504;53.766;9.626;2024-02-26T05:09:44;10.97;;;9.87;;
12871;SDS011;6504;53.766;9.626;2024-02-26T05:12:13;11.93;;;10.73;;
12871;SDS011;6504;53.766;9.626;2024-02-26T05:14:42;12.80;;;11.50;;
12871;SDS011;6504;53.766;9.626;2024-02-26T05:17:10;11.27;;;10.07;;
12871;SDS011;6504;53.766;9.626;2024-02-26T05:19:38;11.30;;;10.20;;
12871;SDS011;6504;53.766;9.626;2024-02-26T05:22:06;12.80;;;11.50;;
12871;SDS011;6504;53.766;9.626;2024-02-26T05:24:37;11.50;;;10.40;;
12871;SDS011;6504;53.766;9.626;2024-02-26T05:27:05;11.00;;;10.00;;
12871;SDS011;6504;53.766;9.626;2024-02-26T05:29:34;11.70;;;10.60;;
12871;SDS011;6504;53.766;9.626;2024-02-26T05:32:02;11.13;;;10.07;;
12871;SDS011;6504;53.766;9.626;2024-02-26T05:34:31;10.70;;;9.60;;
12871;SDS011;6504;53.766;9.626;2024-02-26T05:36:59;12.47;;;11.13;;
12871;SDS011;6504;53.766;9.626;2024-02-26T05:39:28;11.03;;;9.93;;
12871;SDS011;6504;53.766;9.626;2024-02-26T05:41:56;11.53;;;10.43;;
12871;SDS011;6504;53.766;9.626;2024-02-26T05:44:26;10.80;;;9.70;;
12871;SDS011;6504;53.766;9.626;2024-02-26T05:46:55;10.90;;;9.90;;
12871;SDS011;6504;53.766;9.626;2024-02-26T05:49:23;11.17;;;10.07;;
12871;SDS011;6504;53.766;9.626;2024-02-26T05:51:52;10.47;;;9.37;;
12871;SDS011;6504;53.766;9.626;2024-02-26T05:54:20;12.23;;;11.03;;
12871;SDS011;6504;53.766;9.626;2024-02-26T05:56:48;11.47;;;10.37;;
12871;SDS011;6504;53.766;9.626;2024-02-26T05:59:16;10.70;;;9.70;;
12871;SDS011;6504;53.766;9.626;2024-02-26T06:01:44;11.20;;;10.10;;
12871;SDS011;6504;53.766;9.626;2024-02-26T06:04:14;10.43;;;9.43;;
12871;SDS011;6504;53.766;9.626;2024-02-26T06:06:43;11.10;;;10.00;;
12871;SDS011;6504;53.766;9.626;2024-02-26T06:09:12;10.03;;;9.13;;
12871;SDS011;6504;53.766;9.626;2024-02-26T06:11:41;11.20;;;10.10;;
12871;SDS011;6504;53.766;9.626;2024-02-26T06:14:09;10.10;;;9.10;;
12871;SDS011;6504;53.766;9.626;2024-02-26T06:16:39;11.00;;;10.00;;
12871;SDS011;6504;53.766;9.626;2024-02-26T06:19:07;11.47;;;10.37;;
12871;SDS011;6504;53.766;9.626;2024-02-26T06:21:40;10.83;;;9.73;;
12871;SDS011;6504;53.766;9.626;2024-02-26T06:24:08;11.00;;;9.90;;
12871;SDS011;6504;53.766;9.626;2024-02-26T06:26:36;10.60;;;9.60;;
12871;SDS011;6504;53.766;9.626;2024-02-26T06:29:04;10.30;;;9.30;;
12871;SDS011;6504;53.766;9.626;2024-02-26T06:31:32;10.23;;;9.23;;
12871;SDS011;6504;53.766;9.626;2024-02-26T06:34:00;10.57;;;9.53;;
12871;SDS011;6504;53.766;9.626;2024-02-26T06:36:30;10.67;;;9.57;;
12871;SDS011;6504;53.766;9.626;2024-02-26T06:39:00;11.37;;;10.20;;
12871;SDS011;6504;53.766;9.626;2024-02-26T06:41:29;12.23;;;10.57;;
12871;SDS011;6504;53.766;9.626;2024-02-26T06:43:57;11.00;;;9.90;;
12871;SDS011;6504;53.766;9.626;2024-02-26T06:46:25;10.77;;;9.77;;
12871;SDS011;6504;53.766;9.626;2024-02-26T06:48:55;11.77;;;10.50;;
12871;SDS011;6504;53.766;9.626;2024-02-26T06:51:23;11.63;;;10.43;;
12871;SDS011;6504;53.766;9.626;2024-02-26T06:53:51;10.50;;;9.50;;
12871;SDS011;6504;53.766;9.626;2024-02-26T06:56:21;9.97;;;8.97;;
12871;SDS011;6504;53.766;9.626;2024-02-26T06:58:49;11.13;;;10.00;;
12871;SDS011;6504;53.766;9.626;2024-02-26T07:01:17;10.83;;;9.53;;
12871;SDS011;6504;53.766;9.626;2024-02-26T07:03:45;11.20;;;10.00;;
12871;SDS011;6504;53.766;9.626;2024-02-26T07:06:14;11.33;;;10.13;;
12871;SDS011;6504;53.766;9.626;2024-02-26T07:08:42;10.90;;;9.60;;
12871;SDS011;6504;53.766;9.626;2024-02-26T07:11:10;11.73;;;10.53;;
12871;SDS011;6504;53.766;9.626;2024-02-26T07:13:40;11.63;;;9.77;;
12871;SDS011;6504;53.766;9.626;2024-02-26T07:16:09;11.77;;;10.07;;
12871;SDS011;6504;53.766;9.626;2024-02-26T07:18:37;11.53;;;10.33;;
12871;SDS011;6504;53.766;9.626;2024-02-26T07:21:06;12.07;;;10.77;;
12871;SDS011;6504;53.766;9.626;2024-02-26T07:23:34;12.60;;;10.90;;
12871;SDS011;6504;53.766;9.626;2024-02-26T07:26:03;12.77;;;11.07;;
12871;SDS011;6504;53.766;9.626;2024-02-26T07:28:31;11.57;;;10.20;;
12871;SDS011;6504;53.766;9.626;2024-02-26T07:31:01;11.60;;;10.17;;
12871;SDS011;6504;53.766;9.626;2024-02-26T07:33:29;11.73;;;10.53;;
12871;SDS011;6504;53.766;9.626;2024-02-26T07:35:58;12.43;;;11.23;;
12871;SDS011;6504;53.766;9.626;2024-02-26T07:38:26;11.83;;;10.63;;
12871;SDS011;6504;53.766;9.626;2024-02-26T07:41:08;11.47;;;10.27;;
12871;SDS011;6504;53.766;9.626;2024-02-26T07:43:36;12.27;;;10.77;;
12871;SDS011;6504;53.766;9.626;2024-02-26T07:46:06;12.23;;;10.93;;
12871;SDS011;6504;53.766;9.626;2024-02-26T07:48:34;12.27;;;10.97;;
12871;SDS011;6504;53.766;9.626;2024-02-26T07:51:04;13.23;;;11.00;;
12871;SDS011;6504;53.766;9.626;2024-02-26T07:53:32;13.13;;;11.13;;
12871;SDS011;6504;53.766;9.626;2024-02-26T07:56:00;13.23;;;11.70;;
12871;SDS011;6504;53.766;9.626;2024-02-26T07:58:29;12.03;;;10.73;;
12871;SDS011;6504;53.766;9.626;2024-02-26T08:00:57;13.23;;;11.80;;
12871;SDS011;6504;53.766;9.626;2024-02-26T08:03:27;12.60;;;11.30;;
12871;SDS011;6504;53.766;9.626;2024-02-26T08:05:56;12.80;;;11.40;;
12871;SDS011;6504;53.766;9.626;2024-02-26T08:08:24;13.13;;;11.70;;
12871;SDS011;6504;53.766;9.626;2024-02-26T08:10:53;13.50;;;11.53;;
12871;SDS011;6504;53.766;9.626;2024-02-26T08:13:21;13.43;;;11.67;;
12871;SDS011;6504;53.766;9.626;2024-02-26T08:15:50;14.57;;;11.87;;
12871;SDS011;6504;53.766;9.626;2024-02-26T08:18:18;15.40;;;12.23;;
12871;SDS011;6504;53.766;9.626;2024-02-26T08:20:48;15.20;;;13.33;;
12871;SDS011;6504;53.766;9.626;2024-02-26T08:23:16;14.87;;;12.67;;
12871;SDS011;6504;53.766;9.626;2024-02-26T08:25:44;17.00;;;13.20;;
12871;SDS011;6504;53.766;9.626;2024-02-26T08:28:12;16.20;;;12.50;;
12871;SDS011;6504;53.766;9.626;2024-02-26T08:30:41;15.47;;;13.17;;
12871;SDS011;6504;53.766;9.626;2024-02-26T08:33:09;16.97;;;13.20;;
12871;SDS011;6504;53.766;9.626;2024-02-26T08:35:38;15.80;;;13.63;;
12871;SDS011;6504;53.766;9.626;2024-02-26T08:38:07;16.83;;;13.07;;
12871;SDS011;6504;53.766;9.626;2024-02-26T08:40:35;17.70;;;13.33;;
12871;SDS011;6504;53.766;9.626;2024-02-26T08:43:04;17.50;;;14.07;;
12871;SDS011;6504;53.766;9.626;2024-02-26T08:45:32;16.17;;;13.47;;
12871;SDS011;6504;53.766;9.626;2024-02-26T08:48:00;16.47;;;13.80;;
12871;SDS011;6504;53.766;9.626;2024-02-26T08:50:28;16.27;;;13.90;;
12871;SDS011;6504;53.766;9.626;2024-02-26T08:52:57;18.63;;;14.33;;
12871;SDS011;6504;53.766;9.626;2024-02-26T08:55:31;16.33;;;13.60;;
12871;SDS011;6504;53.766;9.626;2024-02-26T08:57:59;18.10;;;14.20;;
12871;SDS011;6504;53.766;9.626;2024-02-26T09:00:27;17.10;;;14.40;;
12871;SDS011;6504;53.766;9.626;2024-02-26T09:02:55;19.17;;;14.93;;
12871;SDS011;6504;53.766;9.626;2024-02-26T09:05:25;18.53;;;14.50;;
12871;SDS011;6504;53.766;9.626;2024-02-26T09:07:53;16.57;;;14.57;;
12871;SDS011;6504;53.766;9.626;2024-02-26T09:10:21;16.33;;;13.63;;
12871;SDS011;6504;53.766;9.626;2024-02-26T09:12:51;17.97;;;14.27;;
12871;SDS011;6504;53.766;9.626;2024-02-26T09:15:19;18.30;;;14.37;;
12871;SDS011;6504;53.766;9.626;2024-02-26T09:17:47;16.57;;;13.77;;
12871;SDS011;6504;53.766;9.626;2024-02-26T09:20:16;17.00;;;14.07;;
12871;SDS011;6504;53.766;9.626;2024-02-26T09:22:46;16.70;;;13.87;;
12871;SDS011;6504;53.766;9.626;2024-02-26T09:25:14;17.10;;;14.07;;
12871;SDS011;6504;53.766;9.626;2024-02-26T09:27:42;17.70;;;14.67;;
12871;SDS011;6504;53.766;9.626;2024-02-26T09:30:13;16.83;;;13.80;;
12871;SDS011;6504;53.766;9.626;2024-02-26T09:32:41;16.77;;;14.27;;
12871;SDS011;6504;53.766;9.626;2024-02-26T09:35:14;15.10;;;12.77;;
12871;SDS011;6504;53.766;9.626;2024-02-26T09:37:42;18.13;;;13.97;;
12871;SDS011;6504;53.766;9.626;2024-02-26T09:40:11;17.47;;;13.93;;
12871;SDS011;6504;53.766;9.626;2024-02-26T09:42:41;16.70;;;13.77;;
12871;SDS011;6504;53.766;9.626;2024-02-26T09:45:16;17.03;;;14.07;;
12871;SDS011;6504;53.766;9.626;2024-02-26T09:47:45;16.87;;;13.60;;
12871;SDS011;6504;53.766;9.626;2024-02-26T09:50:16;17.43;;;14.37;;
12871;SDS011;6504;53.766;9.626;2024-02-26T09:52:49;16.13;;;13.77;;
12871;SDS011;6504;53.766;9.626;2024-02-26T09:55:18;17.43;;;14.00;;
12871;SDS011;6504;53.766;9.626;2024-02-26T09:57:46;16.90;;;13.93;;
12871;SDS011;6504;53.766;9.626;2024-02-26T10:00:17;16.03;;;13.87;;
12871;SDS011;6504;53.766;9.626;2024-02-26T10:02:48;18.43;;;15.30;;
12871;SDS011;6504;53.766;9.626;2024-02-26T10:05:16;17.17;;;14.40;;
12871;SDS011;6504;53.766;9.626;2024-02-26T10:07:46;18.70;;;14.80;;
12871;SDS011;6504;53.766;9.626;2024-02-26T10:10:14;19.37;;;15.37;;
12871;SDS011;6504;53.766;9.626;2024-02-26T10:12:43;19.67;;;16.07;;
12871;SDS011;6504;53.766;9.626;2024-02-26T10:15:12;18.33;;;15.67;;
12871;SDS011;6504;53.766;9.626;2024-02-26T10:17:41;20.77;;;16.33;;
12871;SDS011;6504;53.766;9.626;2024-02-26T10:20:11;20.57;;;16.27;;
12871;SDS011;6504;53.766;9.626;2024-02-26T10:22:41;20.03;;;15.87;;
12871;SDS011;6504;53.766;9.626;2024-02-26T10:25:09;20.43;;;17.50;;
12871;SDS011;6504;53.766;9.626;2024-02-26T10:27:37;21.17;;;16.53;;
12871;SDS011;6504;53.766;9.626;2024-02-26T10:30:18;19.50;;;16.07;;
12871;SDS011;6504;53.766;9.626;2024-02-26T10:32:50;20.07;;;16.70;;
12871;SDS011;6504;53.766;9.626;2024-02-26T10:35:19;20.47;;;15.97;;
12871;SDS011;6504;53.766;9.626;2024-02-26T10:37:48;20.67;;;16.33;;
12871;SDS011;6504;53.766;9.626;2024-02-26T10:40:17;20.40;;;16.83;;
12871;SDS011;6504;53.766;9.626;2024-02-26T10:42:45;18.40;;;16.40;;
12871;SDS011;6504;53.766;9.626;2024-02-26T10:45:13;19.47;;;16.30;;
12871;SDS011;6504;53.766;9.626;2024-02-26T10:47:41;18.37;;;15.83;;
12871;SDS011;6504;53.766;9.626;2024-02-26T10:50:12;17.73;;;15.27;;
12871;SDS011;6504;53.766;9.626;2024-02-26T10:52:43;19.20;;;16.30;;
12871;SDS011;6504;53.766;9.626;2024-02-26T10:55:14;22.87;;;16.87;;
12871;SDS011;6504;53.766;9.626;2024-02-26T10:57:45;22.17;;;17.17;;
12871;SDS011;6504;53.766;9.626;2024-02-26T11:00:15;20.80;;;16.47;;
12871;SDS011;6504;53.766;9.626;2024-02-26T11:02:44;20.63;;;17.03;;
12871;SDS011;6504;53.766;9.626;2024-02-26T11:05:14;20.70;;;17.10;;
12871;SDS011;6504;53.766;9.626;2024-02-26T11:07:44;22.67;;;18.50;;
12871;SDS011;6504;53.766;9.626;2024-02-26T11:10:13;22.60;;;17.90;;
12871;SDS011;6504;53.766;9.626;2024-02-26T11:12:42;23.00;;;18.60;;
12871;SDS011;6504;53.766;9.626;2024-02-26T11:15:11;25.90;;;19.80;;
12871;SDS011;6504;53.766;9.626;2024-02-26T11:17:39;24.53;;;19.33;;
12871;SDS011;6504;53.766;9.626;2024-02-26T11:20:10;25.73;;;20.50;;
12871;SDS011;6504;53.766;9.626;2024-02-26T11:22:41;23.60;;;19.03;;
12871;SDS011;6504;53.766;9.626;2024-02-26T11:25:09;27.37;;;20.03;;
12871;SDS011;6504;53.766;9.626;2024-02-26T11:27:39;25.53;;;19.53;;
12871;SDS011;6504;53.766;9.626;2024-02-26T11:30:11;23.77;;;18.67;;
12871;SDS011;6504;53.766;9.626;2024-02-26T11:32:43;24.37;;;19.47;;
12871;SDS011;6504;53.766;9.626;2024-02-26T11:35:12;22.77;;;19.43;;
12871;SDS011;6504;53.766;9.626;2024-02-26T11:37:43;23.53;;;18.63;;
12871;SDS011;6504;53.766;9.626;2024-02-26T11:40:20;24.07;;;19.83;;
12871;SDS011;6504;53.766;9.626;2024-02-26T11:42:49;23.57;;;18.97;;
12871;SDS011;6504;53.766;9.626;2024-02-26T11:48:25;23.93;;;18.93;;
12871;SDS011;6504;53.766;9.626;2024-02-26T11:50:57;21.70;;;18.07;;
12871;SDS011;6504;53.766;9.626;2024-02-26T11:53:27;22.93;;;18.90;;
12871;SDS011;6504;53.766;9.626;2024-02-26T11:59:01;22.23;;;18.03;;
12871;SDS011;6504;53.766;9.626;2024-02-26T12:01:39;20.63;;;16.83;;
12871;SDS011;6504;53.766;9.626;2024-02-26T12:04:12;21.57;;;18.33;;
12871;SDS011;6504;53.766;9.626;2024-02-26T12:06:45;20.50;;;17.10;;
12871;SDS011;6504;53.766;9.626;2024-02-26T12:09:32;20.63;;;17.00;;
12871;SDS011;6504;53.766;9.626;2024-02-26T12:12:02;19.13;;;16.90;;
12871;SDS011;6504;53.766;9.626;2024-02-26T12:14:33;21.13;;;16.80;;
12871;SDS011;6504;53.766;9.626;2024-02-26T12:17:02;19.20;;;16.60;;
12871;SDS011;6504;53.766;9.626;2024-02-26T12:19:33;19.67;;;16.30;;
12871;SDS011;6504;53.766;9.626;2024-02-26T12:22:06;19.67;;;16.60;;
12871;SDS011;6504;53.766;9.626;2024-02-26T12:24:37;18.80;;;16.80;;
12871;SDS011;6504;53.766;9.626;2024-02-26T12:27:05;20.40;;;16.70;;
12871;SDS011;6504;53.766;9.626;2024-02-26T12:29:33;20.40;;;17.33;;
12871;SDS011;6504;53.766;9.626;2024-02-26T12:32:01;18.93;;;16.57;;
12871;SDS011;6504;53.766;9.626;2024-02-26T12:34:33;17.57;;;15.67;;
12871;SDS011;6504;53.766;9.626;2024-02-26T12:37:02;18.70;;;16.17;;
12871;SDS011;6504;53.766;9.626;2024-02-26T12:39:30;17.97;;;15.30;;
12871;SDS011;6504;53.766;9.626;2024-02-26T12:42:00;19.70;;;15.70;;
12871;SDS011;6504;53.766;9.626;2024-02-26T12:44:29;19.00;;;16.23;;
12871;SDS011;6504;53.766;9.626;2024-02-26T12:47:02;19.10;;;15.90;;
12871;SDS011;6504;53.766;9.626;2024-02-26T12:49:30;18.33;;;16.00;;
12871;SDS011;6504;53.766;9.626;2024-02-26T12:51:59;18.20;;;16.23;;
12871;SDS011;6504;53.766;9.626;2024-02-26T12:54:28;18.93;;;16.13;;
12871;SDS011;6504;53.766;9.626;2024-02-26T12:57:01;19.73;;;16.73;;
12871;SDS011;6504;53.766;9.626;2024-02-26T12:59:32;20.03;;;17.07;;
12871;SDS011;6504;53.766;9.626;2024-02-26T13:02:03;18.13;;;15.47;;
12871;SDS011;6504;53.766;9.626;2024-02-26T13:04:33;18.57;;;16.57;;
12871;SDS011;6504;53.766;9.626;2024-02-26T13:07:03;20.03;;;16.77;;
12871;SDS011;6504;53.766;9.626;2024-02-26T13:09:32;18.07;;;16.03;;
12871;SDS011;6504;53.766;9.626;2024-02-26T13:12:05;17.43;;;15.13;;
12871;SDS011;6504;53.766;9.626;2024-02-26T13:14:34;18.50;;;14.70;;
12871;SDS011;6504;53.766;9.626;2024-02-26T13:17:02;16.63;;;14.70;;
12871;SDS011;6504;53.766;9.626;2024-02-26T13:19:31;18.53;;;15.43;;
12871;SDS011;6504;53.766;9.626;2024-02-26T13:22:03;18.20;;;15.60;;
12871;SDS011;6504;53.766;9.626;2024-02-26T13:24:32;18.17;;;15.00;;
12871;SDS011;6504;53.766;9.626;2024-02-26T13:27:01;17.67;;;14.23;;
12871;SDS011;6504;53.766;9.626;2024-02-26T13:29:31;19.93;;;15.03;;
12871;SDS011;6504;53.766;9.626;2024-02-26T13:31:59;19.93;;;16.30;;
12871;SDS011;6504;53.766;9.626;2024-02-26T13:34:28;17.80;;;14.10;;
12871;SDS011;6504;53.766;9.626;2024-02-26T13:36:57;17.37;;;14.70;;
12871;SDS011;6504;53.766;9.626;2024-02-26T13:39:26;19.43;;;15.57;;
12871;SDS011;6504;53.766;9.626;2024-02-26T13:41:55;16.80;;;15.00;;
12871;SDS011;6504;53.766;9.626;2024-02-26T13:44:23;17.27;;;14.57;;
12871;SDS011;6504;53.766;9.626;2024-02-26T13:46:53;17.37;;;14.60;;
12871;SDS011;6504;53.766;9.626;2024-02-26T13:49:21;17.83;;;15.40;;
12871;SDS011;6504;53.766;9.626;2024-02-26T13:51:49;17.73;;;15.07;;
12871;SDS011;6504;53.766;9.626;2024-02-26T13:54:18;17.13;;;14.70;;
12871;SDS011;6504;53.766;9.626;2024-02-26T13:56:46;18.70;;;15.10;;
12871;SDS011;6504;53.766;9.626;2024-02-26T13:59:14;15.97;;;13.57;;
12871;SDS011;6504;53.766;9.626;2024-02-26T14:01:42;17.27;;;14.47;;
12871;SDS011;6504;53.766;9.626;2024-02-26T14:04:12;16.63;;;14.80;;
12871;SDS011;6504;53.766;9.626;2024-02-26T14:06:40;15.70;;;14.00;;
12871;SDS011;6504;53.766;9.626;2024-02-26T14:09:08;17.03;;;13.70;;
12871;SDS011;6504;53.766;9.626;2024-02-26T14:11:37;17.47;;;14.70;;
12871;SDS011;6504;53.766;9.626;2024-02-26T14:14:06;15.80;;;13.77;;
12871;SDS011;6504;53.766;9.626;2024-02-26T14:16:34;15.43;;;13.83;;
12871;SDS011;6504;53.766;9.626;2024-02-26T14:19:02;17.17;;;14.40;;
12871;SDS011;6504;53.766;9.626;2024-02-26T14:21:32;15.53;;;13.33;;
12871;SDS011;6504;53.766;9.626;2024-02-26T14:24:00;17.40;;;13.93;;
12871;SDS011;6504;53.766;9.626;2024-02-26T14:26:28;15.60;;;13.07;;
12871;SDS011;6504;53.766;9.626;2024-02-26T14:28:56;17.00;;;15.20;;
12871;SDS011;6504;53.766;9.626;2024-02-26T14:31:24;17.07;;;14.57;;
12871;SDS011;6504;53.766;9.626;2024-02-26T14:33:53;15.87;;;13.87;;
12871;SDS011;6504;53.766;9.626;2024-02-26T14:36:21;16.13;;;14.40;;
12871;SDS011;6504;53.766;9.626;2024-02-26T14:38:50;15.47;;;13.53;;
12871;SDS011;6504;53.766;9.626;2024-02-26T14:41:19;15.80;;;14.03;;
12871;SDS011;6504;53.766;9.626;2024-02-26T14:43:47;16.20;;;14.47;;
12871;SDS011;6504;53.766;9.626;2024-02-26T14:46:15;17.53;;;14.30;;
12871;SDS011;6504;53.766;9.626;2024-02-26T14:48:43;15.70;;;14.00;;
12871;SDS011;6504;53.766;9.626;2024-02-26T14:51:11;17.50;;;14.93;;
12871;SDS011;6504;53.766;9.626;2024-02-26T14:53:40;16.27;;;14.30;;
12871;SDS011;6504;53.766;9.626;2024-02-26T14:56:09;17.90;;;14.50;;
12871;SDS011;6504;53.766;9.626;2024-02-26T14:58:37;18.97;;;15.90;;